sensor_id;sensor_type;location;lat;lon;timestamp;P1;durP1;ratioP1;P2;durP2;ratioP2
54263;SDS011;40178;53.042;6.406;2023-02-24T00:01:15;8.65;;;0.98;;
54263;SDS011;40178;53.042;6.406;2023-02-24T00:04:10;7.82;;;1.60;;
54263;SDS011;40178;53.042;6.406;2023-02-24T00:06:37;6.85;;;1.85;;
54263;SDS011;40178;53.042;6.406;2023-02-24T00:09:05;9.50;;;1.40;;
54263;SDS011;40178;53.042;6.406;2023-02-24T00:11:37;7.18;;;1.38;;
54263;SDS011;40178;53.042;6.406;2023-02-24T00:14:08;6.28;;;1.40;;
54263;SDS011;40178;53.042;6.406;2023-02-24T00:16:36;5.72;;;1.27;;
54263;SDS011;40178;53.042;6.406;2023-02-24T00:19:02;5.30;;;1.15;;
54263;SDS011;40178;53.042;6.406;2023-02-24T00:21:31;5.32;;;1.30;;
54263;SDS011;40178;53.042;6.406;2023-02-24T00:23:57;7.50;;;1.13;;
54263;SDS011;40178;53.042;6.406;2023-02-24T00:26:23;9.45;;;1.10;;
54263;SDS011;40178;53.042;6.406;2023-02-24T00:28:49;5.97;;;1.38;;
54263;SDS011;40178;53.042;6.406;2023-02-24T00:31:15;7.38;;;1.42;;
54263;SDS011;40178;53.042;6.406;2023-02-24T00:33:43;5.43;;;1.00;;
54263;SDS011;40178;53.042;6.406;2023-02-24T00:36:14;5.13;;;1.00;;
54263;SDS011;40178;53.042;6.406;2023-02-24T00:38:56;6.95;;;1.42;;
54263;SDS011;40178;53.042;6.406;2023-02-24T00:41:24;7.57;;;1.40;;
54263;SDS011;40178;53.042;6.406;2023-02-24T00:43:59;11.60;;;1.85;;
54263;SDS011;40178;53.042;6.406;2023-02-24T00:46:31;6.35;;;1.23;;
54263;SDS011;40178;53.042;6.406;2023-02-24T00:49:00;6.90;;;1.40;;
54263;SDS011;40178;53.042;6.406;2023-02-24T00:51:29;5.65;;;1.58;;
54263;SDS011;40178;53.042;6.406;2023-02-24T00:53:59;7.57;;;1.27;;
54263;SDS011;40178;53.042;6.406;2023-02-24T00:56:26;8.07;;;1.65;;
54263;SDS011;40178;53.042;6.406;2023-02-24T00:58:53;7.50;;;1.08;;
54263;SDS011;40178;53.042;6.406;2023-02-24T01:01:20;5.47;;;1.30;;
54263;SDS011;40178;53.042;6.406;2023-02-24T01:03:47;8.50;;;1.33;;
54263;SDS011;40178;53.042;6.406;2023-02-24T01:06:14;7.43;;;1.45;;
54263;SDS011;40178;53.042;6.406;2023-02-24T01:08:41;6.75;;;1.38;;
54263;SDS011;40178;53.042;6.406;2023-02-24T01:11:11;8.73;;;1.38;;
54263;SDS011;40178;53.042;6.406;2023-02-24T01:13:56;5.68;;;1.13;;
54263;SDS011;40178;53.042;6.406;2023-02-24T01:16:22;8.13;;;1.70;;
54263;SDS011;40178;53.042;6.406;2023-02-24T01:18:48;8.18;;;1.50;;
54263;SDS011;40178;53.042;6.406;2023-02-24T01:21:17;8.15;;;1.67;;
54263;SDS011;40178;53.042;6.406;2023-02-24T01:23:47;10.20;;;1.98;;
54263;SDS011;40178;53.042;6.406;2023-02-24T01:26:14;10.02;;;1.73;;
54263;SDS011;40178;53.042;6.406;2023-02-24T01:28:41;7.65;;;1.65;;
54263;SDS011;40178;53.042;6.406;2023-02-24T01:31:11;9.23;;;1.90;;
54263;SDS011;40178;53.042;6.406;2023-02-24T01:33:39;7.25;;;2.25;;
54263;SDS011;40178;53.042;6.406;2023-02-24T01:36:09;7.68;;;1.45;;
54263;SDS011;40178;53.042;6.406;2023-02-24T01:38:47;7.45;;;1.40;;
54263;SDS011;40178;53.042;6.406;2023-02-24T01:41:16;7.60;;;1.50;;
54263;SDS011;40178;53.042;6.406;2023-02-24T01:46:43;6.78;;;1.70;;
54263;SDS011;40178;53.042;6.406;2023-02-24T01:49:14;6.30;;;1.35;;
54263;SDS011;40178;53.042;6.406;2023-02-24T01:51:51;5.90;;;1.52;;
54263;SDS011;40178;53.042;6.406;2023-02-24T01:54:27;8.93;;;1.90;;
54263;SDS011;40178;53.042;6.406;2023-02-24T01:56:57;5.80;;;1.27;;
54263;SDS011;40178;53.042;6.406;2023-02-24T01:59:25;7.47;;;1.13;;
54263;SDS011;40178;53.042;6.406;2023-02-24T02:01:55;8.57;;;1.38;;
54263;SDS011;40178;53.042;6.406;2023-02-24T02:04:38;10.73;;;1.48;;
54263;SDS011;40178;53.042;6.406;2023-02-24T02:07:12;4.95;;;1.48;;
54263;SDS011;40178;53.042;6.406;2023-02-24T02:09:41;6.30;;;1.95;;
54263;SDS011;40178;53.042;6.406;2023-02-24T02:12:08;8.10;;;1.63;;
54263;SDS011;40178;53.042;6.406;2023-02-24T02:14:34;10.40;;;1.55;;
54263;SDS011;40178;53.042;6.406;2023-02-24T02:17:16;8.80;;;1.52;;
54263;SDS011;40178;53.042;6.406;2023-02-24T02:30:53;7.28;;;1.58;;
54263;SDS011;40178;53.042;6.406;2023-02-24T02:39:21;8.52;;;1.17;;
54263;SDS011;40178;53.042;6.406;2023-02-24T02:47:47;6.03;;;1.13;;
54263;SDS011;40178;53.042;6.406;2023-02-24T02:52:52;14.07;;;1.70;;
54263;SDS011;40178;53.042;6.406;2023-02-24T02:55:25;7.95;;;1.02;;
54263;SDS011;40178;53.042;6.406;2023-02-24T02:58:15;5.00;;;0.80;;
54263;SDS011;40178;53.042;6.406;2023-02-24T03:00:55;10.73;;;1.40;;
54263;SDS011;40178;53.042;6.406;2023-02-24T03:03:48;9.30;;;1.40;;
54263;SDS011;40178;53.042;6.406;2023-02-24T03:06:16;5.82;;;1.50;;
54263;SDS011;40178;53.042;6.406;2023-02-24T03:08:50;7.18;;;1.10;;
54263;SDS011;40178;53.042;6.406;2023-02-24T03:11:19;7.70;;;1.42;;
54263;SDS011;40178;53.042;6.406;2023-02-24T03:13:46;7.45;;;1.30;;
54263;SDS011;40178;53.042;6.406;2023-02-24T03:16:14;6.32;;;1.10;;
54263;SDS011;40178;53.042;6.406;2023-02-24T03:18:43;7.93;;;1.13;;
54263;SDS011;40178;53.042;6.406;2023-02-24T03:23:53;5.57;;;1.13;;
54263;SDS011;40178;53.042;6.406;2023-02-24T03:28:52;8.73;;;1.15;;
54263;SDS011;40178;53.042;6.406;2023-02-24T03:31:21;10.98;;;1.08;;
54263;SDS011;40178;53.042;6.406;2023-02-24T03:34:05;8.57;;;1.20;;
54263;SDS011;40178;53.042;6.406;2023-02-24T03:36:53;6.70;;;1.00;;
54263;SDS011;40178;53.042;6.406;2023-02-24T03:39:19;5.57;;;1.13;;
54263;SDS011;40178;53.042;6.406;2023-02-24T03:41:53;6.97;;;1.05;;
54263;SDS011;40178;53.042;6.406;2023-02-24T03:44:24;6.10;;;0.95;;
54263;SDS011;40178;53.042;6.406;2023-02-24T03:46:50;4.00;;;1.05;;
54263;SDS011;40178;53.042;6.406;2023-02-24T03:49:16;7.07;;;1.17;;
54263;SDS011;40178;53.042;6.406;2023-02-24T03:52:29;7.38;;;1.17;;
54263;SDS011;40178;53.042;6.406;2023-02-24T03:59:49;9.27;;;1.75;;
54263;SDS011;40178;53.042;6.406;2023-02-24T04:02:21;6.05;;;1.25;;
54263;SDS011;40178;53.042;6.406;2023-02-24T04:04:55;6.53;;;1.23;;
54263;SDS011;40178;53.042;6.406;2023-02-24T04:10:04;7.90;;;1.10;;
54263;SDS011;40178;53.042;6.406;2023-02-24T04:15:21;6.07;;;1.10;;
54263;SDS011;40178;53.042;6.406;2023-02-24T04:18:38;3.72;;;0.88;;
54263;SDS011;40178;53.042;6.406;2023-02-24T04:20:57;4.65;;;0.70;;
54263;SDS011;40178;53.042;6.406;2023-02-24T04:23:25;6.93;;;1.20;;
54263;SDS011;40178;53.042;6.406;2023-02-24T04:25:55;6.68;;;1.00;;
54263;SDS011;40178;53.042;6.406;2023-02-24T04:28:21;9.68;;;1.33;;
54263;SDS011;40178;53.042;6.406;2023-02-24T04:30:49;5.82;;;1.02;;
54263;SDS011;40178;53.042;6.406;2023-02-24T04:33:16;8.45;;;1.05;;
54263;SDS011;40178;53.042;6.406;2023-02-24T04:35:43;6.20;;;1.40;;
54263;SDS011;40178;53.042;6.406;2023-02-24T04:38:10;6.60;;;1.30;;
54263;SDS011;40178;53.042;6.406;2023-02-24T04:40:36;8.25;;;1.20;;
54263;SDS011;40178;53.042;6.406;2023-02-24T04:43:04;4.28;;;0.90;;
54263;SDS011;40178;53.042;6.406;2023-02-24T04:45:31;7.38;;;1.23;;
54263;SDS011;40178;53.042;6.406;2023-02-24T04:47:58;8.02;;;1.00;;
54263;SDS011;40178;53.042;6.406;2023-02-24T04:50:35;4.97;;;0.98;;
54263;SDS011;40178;53.042;6.406;2023-02-24T04:53:03;7.05;;;1.30;;
54263;SDS011;40178;53.042;6.406;2023-02-24T04:55:33;5.53;;;0.90;;
54263;SDS011;40178;53.042;6.406;2023-02-24T04:58:04;7.22;;;1.05;;
54263;SDS011;40178;53.042;6.406;2023-02-24T05:00:30;7.63;;;1.20;;
54263;SDS011;40178;53.042;6.406;2023-02-24T05:03:00;8.15;;;1.00;;
54263;SDS011;40178;53.042;6.406;2023-02-24T05:05:28;7.55;;;1.08;;
54263;SDS011;40178;53.042;6.406;2023-02-24T05:07:55;7.47;;;1.17;;
54263;SDS011;40178;53.042;6.406;2023-02-24T05:10:38;8.82;;;1.35;;
54263;SDS011;40178;53.042;6.406;2023-02-24T05:13:08;6.47;;;1.13;;
54263;SDS011;40178;53.042;6.406;2023-02-24T05:15:38;5.53;;;1.23;;
54263;SDS011;40178;53.042;6.406;2023-02-24T05:18:05;8.10;;;1.27;;
54263;SDS011;40178;53.042;6.406;2023-02-24T05:20:39;5.53;;;1.23;;
54263;SDS011;40178;53.042;6.406;2023-02-24T05:23:26;5.72;;;1.52;;
54263;SDS011;40178;53.042;6.406;2023-02-24T05:25:56;9.95;;;1.42;;
54263;SDS011;40178;53.042;6.406;2023-02-24T05:28:23;9.48;;;1.52;;
54263;SDS011;40178;53.042;6.406;2023-02-24T05:30:49;6.25;;;1.92;;
54263;SDS011;40178;53.042;6.406;2023-02-24T05:33:16;12.07;;;1.38;;
54263;SDS011;40178;53.042;6.406;2023-02-24T05:35:48;7.63;;;1.15;;
54263;SDS011;40178;53.042;6.406;2023-02-24T05:38:17;6.40;;;1.38;;
54263;SDS011;40178;53.042;6.406;2023-02-24T05:40:46;8.77;;;0.98;;
54263;SDS011;40178;53.042;6.406;2023-02-24T05:43:13;7.70;;;1.10;;
54263;SDS011;40178;53.042;6.406;2023-02-24T05:45:42;6.50;;;1.15;;
54263;SDS011;40178;53.042;6.406;2023-02-24T05:48:12;7.25;;;1.23;;
54263;SDS011;40178;53.042;6.406;2023-02-24T05:50:40;4.72;;;1.27;;
54263;SDS011;40178;53.042;6.406;2023-02-24T05:53:11;5.68;;;0.75;;
54263;SDS011;40178;53.042;6.406;2023-02-24T05:55:37;5.28;;;1.65;;
54263;SDS011;40178;53.042;6.406;2023-02-24T05:58:03;7.78;;;1.10;;
54263;SDS011;40178;53.042;6.406;2023-02-24T06:00:32;8.63;;;1.30;;
54263;SDS011;40178;53.042;6.406;2023-02-24T06:03:02;6.80;;;1.10;;
54263;SDS011;40178;53.042;6.406;2023-02-24T06:05:33;5.65;;;1.23;;
54263;SDS011;40178;53.042;6.406;2023-02-24T06:07:59;6.28;;;1.10;;
54263;SDS011;40178;53.042;6.406;2023-02-24T06:10:29;4.35;;;1.17;;
54263;SDS011;40178;53.042;6.406;2023-02-24T06:12:59;6.28;;;1.20;;
54263;SDS011;40178;53.042;6.406;2023-02-24T06:15:26;5.05;;;1.30;;
54263;SDS011;40178;53.042;6.406;2023-02-24T06:17:52;6.78;;;1.60;;
54263;SDS011;40178;53.042;6.406;2023-02-24T06:20:21;7.28;;;1.13;;
54263;SDS011;40178;53.042;6.406;2023-02-24T06:22:48;5.45;;;1.30;;
54263;SDS011;40178;53.042;6.406;2023-02-24T06:25:18;7.47;;;1.40;;
54263;SDS011;40178;53.042;6.406;2023-02-24T06:27:44;5.65;;;1.60;;
54263;SDS011;40178;53.042;6.406;2023-02-24T06:30:10;4.63;;;1.30;;
54263;SDS011;40178;53.042;6.406;2023-02-24T06:32:36;4.53;;;1.17;;
54263;SDS011;40178;53.042;6.406;2023-02-24T06:35:02;6.65;;;1.20;;
54263;SDS011;40178;53.042;6.406;2023-02-24T06:37:27;6.38;;;1.35;;
54263;SDS011;40178;53.042;6.406;2023-02-24T06:39:54;7.93;;;2.03;;
54263;SDS011;40178;53.042;6.406;2023-02-24T06:42:19;7.90;;;1.60;;
54263;SDS011;40178;53.042;6.406;2023-02-24T06:44:45;7.45;;;1.77;;
54263;SDS011;40178;53.042;6.406;2023-02-24T06:47:11;7.10;;;1.92;;
54263;SDS011;40178;53.042;6.406;2023-02-24T06:49:40;8.88;;;1.85;;
54263;SDS011;40178;53.042;6.406;2023-02-24T06:52:08;10.50;;;2.05;;
54263;SDS011;40178;53.042;6.406;2023-02-24T06:54:35;10.68;;;2.88;;
54263;SDS011;40178;53.042;6.406;2023-02-24T06:57:01;12.00;;;2.67;;
54263;SDS011;40178;53.042;6.406;2023-02-24T06:59:27;9.55;;;2.40;;
54263;SDS011;40178;53.042;6.406;2023-02-24T07:01:54;8.40;;;2.08;;
54263;SDS011;40178;53.042;6.406;2023-02-24T07:04:21;10.75;;;2.97;;
54263;SDS011;40178;53.042;6.406;2023-02-24T07:06:52;14.63;;;2.90;;
54263;SDS011;40178;53.042;6.406;2023-02-24T07:09:22;10.35;;;3.80;;
54263;SDS011;40178;53.042;6.406;2023-02-24T07:11:49;12.75;;;3.65;;
54263;SDS011;40178;53.042;6.406;2023-02-24T07:14:17;10.13;;;3.40;;
54263;SDS011;40178;53.042;6.406;2023-02-24T07:16:44;15.45;;;3.28;;
54263;SDS011;40178;53.042;6.406;2023-02-24T07:19:12;12.32;;;3.30;;
54263;SDS011;40178;53.042;6.406;2023-02-24T07:21:43;10.57;;;2.80;;
54263;SDS011;40178;53.042;6.406;2023-02-24T07:24:15;11.60;;;3.58;;
54263;SDS011;40178;53.042;6.406;2023-02-24T07:27:07;10.32;;;2.97;;
54263;SDS011;40178;53.042;6.406;2023-02-24T07:29:36;11.90;;;2.75;;
54263;SDS011;40178;53.042;6.406;2023-02-24T07:32:02;11.52;;;2.50;;
54263;SDS011;40178;53.042;6.406;2023-02-24T07:34:29;14.23;;;3.03;;
54263;SDS011;40178;53.042;6.406;2023-02-24T07:36:56;13.52;;;3.60;;
54263;SDS011;40178;53.042;6.406;2023-02-24T07:39:22;14.57;;;3.38;;
54263;SDS011;40178;53.042;6.406;2023-02-24T07:41:49;9.10;;;3.05;;
54263;SDS011;40178;53.042;6.406;2023-02-24T07:44:16;11.07;;;3.10;;
54263;SDS011;40178;53.042;6.406;2023-02-24T07:46:43;15.85;;;3.33;;
54263;SDS011;40178;53.042;6.406;2023-02-24T07:49:13;12.32;;;2.80;;
54263;SDS011;40178;53.042;6.406;2023-02-24T07:51:44;11.37;;;2.33;;
54263;SDS011;40178;53.042;6.406;2023-02-24T07:54:16;11.57;;;2.83;;
54263;SDS011;40178;53.042;6.406;2023-02-24T07:56:42;17.33;;;2.85;;
54263;SDS011;40178;53.042;6.406;2023-02-24T07:59:13;9.25;;;2.50;;
54263;SDS011;40178;53.042;6.406;2023-02-24T08:01:40;13.00;;;2.22;;
54263;SDS011;40178;53.042;6.406;2023-02-24T08:04:14;9.68;;;2.55;;
54263;SDS011;40178;53.042;6.406;2023-02-24T08:06:41;15.30;;;2.97;;
54263;SDS011;40178;53.042;6.406;2023-02-24T08:09:18;9.10;;;2.38;;
54263;SDS011;40178;53.042;6.406;2023-02-24T08:11:52;12.07;;;2.90;;
54263;SDS011;40178;53.042;6.406;2023-02-24T08:14:19;11.35;;;3.40;;
54263;SDS011;40178;53.042;6.406;2023-02-24T08:16:58;12.55;;;2.78;;
54263;SDS011;40178;53.042;6.406;2023-02-24T08:19:29;10.52;;;2.65;;
54263;SDS011;40178;53.042;6.406;2023-02-24T08:22:07;12.35;;;2.70;;
54263;SDS011;40178;53.042;6.406;2023-02-24T08:25:17;15.93;;;2.78;;
54263;SDS011;40178;53.042;6.406;2023-02-24T08:27:42;10.98;;;2.80;;
54263;SDS011;40178;53.042;6.406;2023-02-24T08:30:09;7.70;;;2.90;;
54263;SDS011;40178;53.042;6.406;2023-02-24T08:32:47;12.45;;;3.50;;
54263;SDS011;40178;53.042;6.406;2023-02-24T08:35:20;13.73;;;4.40;;
54263;SDS011;40178;53.042;6.406;2023-02-24T08:37:53;9.73;;;3.08;;
54263;SDS011;40178;53.042;6.406;2023-02-24T08:40:21;13.25;;;4.15;;
54263;SDS011;40178;53.042;6.406;2023-02-24T08:42:58;15.18;;;4.53;;
54263;SDS011;40178;53.042;6.406;2023-02-24T08:45:41;8.90;;;2.63;;
54263;SDS011;40178;53.042;6.406;2023-02-24T08:48:12;8.95;;;2.50;;
54263;SDS011;40178;53.042;6.406;2023-02-24T08:50:45;10.35;;;3.33;;
54263;SDS011;40178;53.042;6.406;2023-02-24T08:53:13;8.82;;;3.20;;
54263;SDS011;40178;53.042;6.406;2023-02-24T08:55:43;8.95;;;2.88;;
54263;SDS011;40178;53.042;6.406;2023-02-24T08:58:09;9.07;;;2.80;;
54263;SDS011;40178;53.042;6.406;2023-02-24T09:00:42;12.57;;;3.13;;
54263;SDS011;40178;53.042;6.406;2023-02-24T09:08:22;10.73;;;2.75;;
54263;SDS011;40178;53.042;6.406;2023-02-24T09:10:48;7.00;;;2.70;;
54263;SDS011;40178;53.042;6.406;2023-02-24T09:13:14;6.93;;;2.10;;
54263;SDS011;40178;53.042;6.406;2023-02-24T09:15:40;9.65;;;3.15;;
54263;SDS011;40178;53.042;6.406;2023-02-24T09:18:05;8.15;;;2.67;;
54263;SDS011;40178;53.042;6.406;2023-02-24T09:20:31;9.00;;;3.13;;
54263;SDS011;40178;53.042;6.406;2023-02-24T09:23:15;6.45;;;2.50;;
54263;SDS011;40178;53.042;6.406;2023-02-24T09:25:44;9.70;;;2.60;;
54263;SDS011;40178;53.042;6.406;2023-02-24T09:30:43;10.23;;;2.72;;
54263;SDS011;40178;53.042;6.406;2023-02-24T09:36:07;8.07;;;2.58;;
54263;SDS011;40178;53.042;6.406;2023-02-24T09:38:38;8.57;;;3.03;;
54263;SDS011;40178;53.042;6.406;2023-02-24T09:47:15;10.10;;;3.65;;
54263;SDS011;40178;53.042;6.406;2023-02-24T09:50:29;11.07;;;3.35;;
54263;SDS011;40178;53.042;6.406;2023-02-24T09:53:10;9.50;;;3.60;;
54263;SDS011;40178;53.042;6.406;2023-02-24T09:55:58;12.38;;;3.15;;
54263;SDS011;40178;53.042;6.406;2023-02-24T09:58:47;8.27;;;3.08;;
54263;SDS011;40178;53.042;6.406;2023-02-24T10:01:27;11.25;;;3.45;;
54263;SDS011;40178;53.042;6.406;2023-02-24T10:07:03;9.93;;;3.40;;
54263;SDS011;40178;53.042;6.406;2023-02-24T10:17:39;9.80;;;3.17;;
54263;SDS011;40178;53.042;6.406;2023-02-24T10:20:24;16.95;;;4.05;;
54263;SDS011;40178;53.042;6.406;2023-02-24T10:26:04;12.23;;;3.30;;
54263;SDS011;40178;53.042;6.406;2023-02-24T10:31:21;14.93;;;2.40;;
54263;SDS011;40178;53.042;6.406;2023-02-24T10:34:01;19.48;;;3.03;;
54263;SDS011;40178;53.042;6.406;2023-02-24T10:36:35;13.10;;;2.60;;
54263;SDS011;40178;53.042;6.406;2023-02-24T10:39:35;13.15;;;2.78;;
54263;SDS011;40178;53.042;6.406;2023-02-24T10:42:01;17.35;;;2.97;;
54263;SDS011;40178;53.042;6.406;2023-02-24T10:44:44;11.88;;;2.70;;
54263;SDS011;40178;53.042;6.406;2023-02-24T10:47:17;20.00;;;3.88;;
54263;SDS011;40178;53.042;6.406;2023-02-24T10:49:55;20.25;;;3.33;;
54263;SDS011;40178;53.042;6.406;2023-02-24T10:52:32;16.08;;;2.88;;
54263;SDS011;40178;53.042;6.406;2023-02-24T10:55:09;10.77;;;2.80;;
54263;SDS011;40178;53.042;6.406;2023-02-24T10:57:53;15.23;;;3.42;;
54263;SDS011;40178;53.042;6.406;2023-02-24T11:00:36;16.70;;;3.08;;
54263;SDS011;40178;53.042;6.406;2023-02-24T11:03:27;18.60;;;3.20;;
54263;SDS011;40178;53.042;6.406;2023-02-24T11:06:03;19.83;;;3.97;;
54263;SDS011;40178;53.042;6.406;2023-02-24T11:08:33;18.67;;;3.35;;
54263;SDS011;40178;53.042;6.406;2023-02-24T11:11:17;17.73;;;3.78;;
54263;SDS011;40178;53.042;6.406;2023-02-24T11:13:54;15.52;;;2.53;;
54263;SDS011;40178;53.042;6.406;2023-02-24T11:16:50;16.85;;;3.22;;
54263;SDS011;40178;53.042;6.406;2023-02-24T11:19:47;17.85;;;3.17;;
54263;SDS011;40178;53.042;6.406;2023-02-24T11:22:22;19.05;;;4.13;;
54263;SDS011;40178;53.042;6.406;2023-02-24T11:24:54;18.13;;;2.95;;
54263;SDS011;40178;53.042;6.406;2023-02-24T11:27:20;11.10;;;2.95;;
54263;SDS011;40178;53.042;6.406;2023-02-24T11:39:00;14.77;;;2.35;;
54263;SDS011;40178;53.042;6.406;2023-02-24T11:44:38;17.55;;;3.33;;
54263;SDS011;40178;53.042;6.406;2023-02-24T11:46:54;19.30;;;4.07;;
54263;SDS011;40178;53.042;6.406;2023-02-24T11:49:37;20.15;;;3.05;;
54263;SDS011;40178;53.042;6.406;2023-02-24T11:52:15;21.35;;;4.00;;
54263;SDS011;40178;53.042;6.406;2023-02-24T11:54:53;24.20;;;3.30;;
54263;SDS011;40178;53.042;6.406;2023-02-24T11:57:42;19.02;;;3.25;;
54263;SDS011;40178;53.042;6.406;2023-02-24T12:02:55;16.52;;;2.85;;
54263;SDS011;40178;53.042;6.406;2023-02-24T12:05:31;12.45;;;3.08;;
54263;SDS011;40178;53.042;6.406;2023-02-24T12:08:05;13.18;;;3.13;;
54263;SDS011;40178;53.042;6.406;2023-02-24T12:13:44;12.77;;;2.33;;
54263;SDS011;40178;53.042;6.406;2023-02-24T12:16:17;8.93;;;1.60;;
54263;SDS011;40178;53.042;6.406;2023-02-24T12:18:49;5.78;;;0.85;;
54263;SDS011;40178;53.042;6.406;2023-02-24T12:21:41;4.28;;;0.90;;
54263;SDS011;40178;53.042;6.406;2023-02-24T12:24:12;6.18;;;1.00;;
54263;SDS011;40178;53.042;6.406;2023-02-24T12:26:57;6.60;;;0.93;;
54263;SDS011;40178;53.042;6.406;2023-02-24T12:32:53;13.88;;;1.38;;
54263;SDS011;40178;53.042;6.406;2023-02-24T12:35:37;8.65;;;1.38;;
54263;SDS011;40178;53.042;6.406;2023-02-24T12:41:12;7.53;;;1.38;;
54263;SDS011;40178;53.042;6.406;2023-02-24T12:46:54;12.52;;;2.13;;
54263;SDS011;40178;53.042;6.406;2023-02-24T12:55:10;14.85;;;2.05;;
54263;SDS011;40178;53.042;6.406;2023-02-24T12:57:41;13.93;;;2.13;;
54263;SDS011;40178;53.042;6.406;2023-02-24T13:00:53;7.00;;;1.55;;
54263;SDS011;40178;53.042;6.406;2023-02-24T13:03:43;12.25;;;1.27;;
54263;SDS011;40178;53.042;6.406;2023-02-24T13:06:20;8.60;;;1.42;;
54263;SDS011;40178;53.042;6.406;2023-02-24T13:12:35;6.32;;;0.80;;
54263;SDS011;40178;53.042;6.406;2023-02-24T13:14:42;10.20;;;1.05;;
54263;SDS011;40178;53.042;6.406;2023-02-24T13:19:34;4.40;;;0.40;;
54263;SDS011;40178;53.042;6.406;2023-02-24T13:24:36;3.28;;;0.20;;
54263;SDS011;40178;53.042;6.406;2023-02-24T13:29:41;3.70;;;0.40;;
54263;SDS011;40178;53.042;6.406;2023-02-24T13:37:41;3.85;;;0.70;;
54263;SDS011;40178;53.042;6.406;2023-02-24T13:40:21;3.50;;;0.68;;
54263;SDS011;40178;53.042;6.406;2023-02-24T13:45:19;3.60;;;1.08;;
54263;SDS011;40178;53.042;6.406;2023-02-24T13:50:29;3.43;;;0.30;;
54263;SDS011;40178;53.042;6.406;2023-02-24T13:56:12;5.40;;;0.75;;
54263;SDS011;40178;53.042;6.406;2023-02-24T13:58:47;5.65;;;0.57;;
54263;SDS011;40178;53.042;6.406;2023-02-24T14:01:48;4.13;;;0.93;;
54263;SDS011;40178;53.042;6.406;2023-02-24T14:04:31;5.10;;;0.70;;
54263;SDS011;40178;53.042;6.406;2023-02-24T14:07:04;2.25;;;0.30;;
54263;SDS011;40178;53.042;6.406;2023-02-24T14:09:38;3.90;;;0.67;;
54263;SDS011;40178;53.042;6.406;2023-02-24T14:12:19;2.40;;;0.60;;
54263;SDS011;40178;53.042;6.406;2023-02-24T14:14:48;5.15;;;0.40;;
54263;SDS011;40178;53.042;6.406;2023-02-24T14:17:27;2.60;;;0.32;;
54263;SDS011;40178;53.042;6.406;2023-02-24T14:22:34;3.70;;;0.50;;
54263;SDS011;40178;53.042;6.406;2023-02-24T14:25:09;6.00;;;0.77;;
54263;SDS011;40178;53.042;6.406;2023-02-24T14:27:35;3.83;;;0.57;;
54263;SDS011;40178;53.042;6.406;2023-02-24T14:30:03;6.22;;;0.80;;
54263;SDS011;40178;53.042;6.406;2023-02-24T14:32:31;7.32;;;0.52;;
54263;SDS011;40178;53.042;6.406;2023-02-24T14:34:57;5.32;;;0.70;;
54263;SDS011;40178;53.042;6.406;2023-02-24T14:37:24;6.47;;;0.95;;
54263;SDS011;40178;53.042;6.406;2023-02-24T14:39:53;4.13;;;0.82;;
54263;SDS011;40178;53.042;6.406;2023-02-24T14:42:21;5.72;;;1.27;;
54263;SDS011;40178;53.042;6.406;2023-02-24T14:44:48;3.22;;;0.47;;
54263;SDS011;40178;53.042;6.406;2023-02-24T14:47:16;5.95;;;0.90;;
54263;SDS011;40178;53.042;6.406;2023-02-24T14:49:57;3.17;;;0.47;;
54263;SDS011;40178;53.042;6.406;2023-02-24T14:52:38;7.35;;;0.68;;
54263;SDS011;40178;53.042;6.406;2023-02-24T14:55:18;4.60;;;0.77;;
54263;SDS011;40178;53.042;6.406;2023-02-24T15:00:38;5.50;;;1.00;;
54263;SDS011;40178;53.042;6.406;2023-02-24T15:03:22;6.07;;;0.68;;
54263;SDS011;40178;53.042;6.406;2023-02-24T15:05:55;5.60;;;1.20;;
54263;SDS011;40178;53.042;6.406;2023-02-24T15:08:31;10.35;;;1.20;;
54263;SDS011;40178;53.042;6.406;2023-02-24T15:11:08;6.45;;;0.50;;
54263;SDS011;40178;53.042;6.406;2023-02-24T15:13:46;5.50;;;0.80;;
54263;SDS011;40178;53.042;6.406;2023-02-24T15:16:35;8.05;;;1.17;;
54263;SDS011;40178;53.042;6.406;2023-02-24T15:19:04;9.40;;;1.00;;
54263;SDS011;40178;53.042;6.406;2023-02-24T15:21:45;8.05;;;0.90;;
54263;SDS011;40178;53.042;6.406;2023-02-24T15:24:18;6.22;;;1.00;;
54263;SDS011;40178;53.042;6.406;2023-02-24T15:26:58;5.10;;;0.82;;
54263;SDS011;40178;53.042;6.406;2023-02-24T15:29:43;5.80;;;1.08;;
54263;SDS011;40178;53.042;6.406;2023-02-24T15:32:20;9.30;;;1.30;;
54263;SDS011;40178;53.042;6.406;2023-02-24T15:34:52;8.25;;;1.00;;
54263;SDS011;40178;53.042;6.406;2023-02-24T15:37:28;5.43;;;0.90;;
54263;SDS011;40178;53.042;6.406;2023-02-24T15:40:21;4.40;;;0.60;;
54263;SDS011;40178;53.042;6.406;2023-02-24T15:42:51;4.75;;;0.82;;
54263;SDS011;40178;53.042;6.406;2023-02-24T15:45:22;5.75;;;0.98;;
54263;SDS011;40178;53.042;6.406;2023-02-24T15:47:55;6.13;;;0.60;;
54263;SDS011;40178;53.042;6.406;2023-02-24T15:50:23;2.47;;;0.47;;
54263;SDS011;40178;53.042;6.406;2023-02-24T15:52:49;4.47;;;0.65;;
54263;SDS011;40178;53.042;6.406;2023-02-24T15:55:16;5.40;;;1.23;;
54263;SDS011;40178;53.042;6.406;2023-02-24T15:57:43;7.03;;;0.73;;
54263;SDS011;40178;53.042;6.406;2023-02-24T16:00:11;10.88;;;1.60;;
54263;SDS011;40178;53.042;6.406;2023-02-24T16:02:39;6.30;;;0.90;;
54263;SDS011;40178;53.042;6.406;2023-02-24T16:05:05;14.82;;;1.35;;
54263;SDS011;40178;53.042;6.406;2023-02-24T16:07:34;7.07;;;1.15;;
54263;SDS011;40178;53.042;6.406;2023-02-24T16:10:02;10.15;;;1.48;;
54263;SDS011;40178;53.042;6.406;2023-02-24T16:12:29;10.27;;;1.23;;
54263;SDS011;40178;53.042;6.406;2023-02-24T16:14:59;9.57;;;1.75;;
54263;SDS011;40178;53.042;6.406;2023-02-24T16:20:02;7.03;;;1.77;;
54263;SDS011;40178;53.042;6.406;2023-02-24T16:22:33;9.48;;;1.55;;
54263;SDS011;40178;53.042;6.406;2023-02-24T16:24:59;10.35;;;1.98;;
54263;SDS011;40178;53.042;6.406;2023-02-24T16:27:24;11.80;;;1.40;;
54263;SDS011;40178;53.042;6.406;2023-02-24T16:29:53;7.40;;;1.48;;
54263;SDS011;40178;53.042;6.406;2023-02-24T16:32:20;11.57;;;1.42;;
54263;SDS011;40178;53.042;6.406;2023-02-24T16:34:48;10.05;;;2.15;;
54263;SDS011;40178;53.042;6.406;2023-02-24T16:37:18;12.73;;;2.10;;
54263;SDS011;40178;53.042;6.406;2023-02-24T16:39:47;8.73;;;1.90;;
54263;SDS011;40178;53.042;6.406;2023-02-24T16:42:14;10.10;;;1.65;;
54263;SDS011;40178;53.042;6.406;2023-02-24T16:44:40;8.98;;;1.52;;
54263;SDS011;40178;53.042;6.406;2023-02-24T16:47:06;10.02;;;2.15;;
54263;SDS011;40178;53.042;6.406;2023-02-24T16:49:36;10.60;;;1.42;;
54263;SDS011;40178;53.042;6.406;2023-02-24T16:52:02;9.98;;;1.52;;
54263;SDS011;40178;53.042;6.406;2023-02-24T16:54:28;12.27;;;2.38;;
54263;SDS011;40178;53.042;6.406;2023-02-24T16:56:54;8.25;;;1.27;;
54263;SDS011;40178;53.042;6.406;2023-02-24T16:59:20;9.45;;;1.08;;
54263;SDS011;40178;53.042;6.406;2023-02-24T17:01:46;9.18;;;1.40;;
54263;SDS011;40178;53.042;6.406;2023-02-24T17:04:12;12.60;;;1.95;;
54263;SDS011;40178;53.042;6.406;2023-02-24T17:06:38;10.35;;;1.42;;
54263;SDS011;40178;53.042;6.406;2023-02-24T17:09:04;13.02;;;1.77;;
54263;SDS011;40178;53.042;6.406;2023-02-24T17:11:30;7.03;;;1.63;;
54263;SDS011;40178;53.042;6.406;2023-02-24T17:13:56;10.10;;;2.00;;
54263;SDS011;40178;53.042;6.406;2023-02-24T17:16:22;12.43;;;1.75;;
54263;SDS011;40178;53.042;6.406;2023-02-24T17:18:47;7.10;;;1.95;;
54263;SDS011;40178;53.042;6.406;2023-02-24T17:21:13;9.15;;;1.88;;
54263;SDS011;40178;53.042;6.406;2023-02-24T17:23:40;9.65;;;1.40;;
54263;SDS011;40178;53.042;6.406;2023-02-24T17:26:09;7.57;;;1.20;;
54263;SDS011;40178;53.042;6.406;2023-02-24T17:28:38;11.32;;;1.85;;
54263;SDS011;40178;53.042;6.406;2023-02-24T17:31:03;8.38;;;1.70;;
54263;SDS011;40178;53.042;6.406;2023-02-24T17:33:31;5.78;;;1.88;;
54263;SDS011;40178;53.042;6.406;2023-02-24T17:35:57;14.45;;;1.83;;